SCVV weather

Los Maitenes de Villa Vieja Airport
La Union, Los Ríos Region, Chile

Public forecast

Using degrees Celsius for public forecast. Weather courtesy of forecast.io.

METAR (pilot weather report)

Report is more than 6 hours old.

Closest report is Cañal Bajo Carlos - Hott Siebert Airport, 18.1 nm (33.5 km) SSW. Retrieved 2019/03/23 21:00 UTC (14 hours ago):

SCJO 232100Z 23005KT 9999 SCT040 20/07 Q1022

TAF (pilot weather forecast)

Forecast is more than 12 hours old.

Closest forecast is Cañal Bajo Carlos - Hott Siebert Airport, 18.1 nm (33.5 km) SSW. Retrieved 2019/03/23 12:33 UTC (22 hours ago):

TAF TAF SCJO 231009Z 2312/2324 VRB02KT 9999 BKN025 TN14/2312Z TX19/2319Z BECMG 2313/2315 17008KT BECMG 2321/2323 FEW030